createdAt,value
2019-03-30T00:00:57.980Z,86.08
2019-03-30T00:01:57.962Z,86.13
2019-03-30T00:02:57.971Z,86.54
2019-03-30T00:03:57.960Z,86.13
2019-03-30T00:04:57.994Z,86.54
2019-03-30T00:05:57.952Z,85.71
2019-03-30T00:06:57.939Z,85.71
2019-03-30T00:07:57.891Z,85.82
2019-03-30T00:08:57.914Z,85.92
2019-03-30T00:09:57.903Z,85.82
2019-03-30T00:10:57.863Z,85.30
2019-03-30T00:11:58.081Z,85.41
2019-03-30T00:12:57.872Z,85.30
2019-03-30T00:13:57.832Z,85.20
2019-03-30T00:14:57.842Z,85.30
2019-03-30T00:15:57.827Z,85.51
2019-03-30T00:16:57.795Z,85.30
2019-03-30T00:17:57.777Z,85.92
2019-03-30T00:18:57.767Z,85.61
2019-03-30T00:19:57.768Z,86.68
2019-03-30T00:20:57.786Z,86.64
2019-03-30T00:21:57.779Z,86.13
2019-03-30T00:22:57.744Z,85.71
2019-03-30T00:23:57.711Z,85.82
2019-03-30T00:24:57.706Z,86.33
2019-03-30T00:25:57.699Z,86.06
2019-03-30T00:26:57.711Z,86.64
2019-03-30T00:27:57.685Z,86.27
2019-03-30T00:28:57.671Z,86.58
2019-03-30T00:29:57.648Z,85.75
2019-03-30T00:30:57.638Z,85.75
2019-03-30T00:31:57.635Z,85.75
2019-03-30T00:32:57.647Z,85.55
2019-03-30T00:33:57.607Z,85.55
2019-03-30T00:34:57.599Z,86.06
2019-03-30T00:35:57.580Z,86.47
2019-03-30T00:36:57.577Z,86.58
2019-03-30T00:37:57.592Z,86.58
2019-03-30T00:38:57.664Z,86.47
2019-03-30T00:39:57.545Z,86.27
2019-03-30T00:40:57.524Z,86.88
2019-03-30T00:41:57.531Z,86.58
2019-03-30T00:42:57.509Z,86.68
2019-03-30T00:43:57.496Z,86.37
2019-03-30T00:44:57.497Z,86.99
2019-03-30T00:45:57.472Z,86.61
2019-03-30T00:46:57.481Z,86.37
2019-03-30T00:47:57.476Z,86.52
2019-03-30T00:48:57.438Z,86.52
2019-03-30T00:49:57.473Z,86.31
2019-03-30T00:50:57.428Z,86.61
2019-03-30T00:51:57.408Z,86.72
2019-03-30T00:52:57.406Z,86.61
2019-03-30T00:53:57.420Z,87.03
2019-03-30T00:54:57.375Z,86.72
2019-03-30T00:55:57.407Z,87.03
2019-03-30T00:56:57.355Z,86.93
2019-03-30T00:57:57.350Z,87.13
2019-03-30T00:58:57.343Z,87.13
2019-03-30T00:59:57.358Z,87.13
2019-03-30T01:00:57.320Z,86.93
2019-03-30T01:01:57.348Z,87.03
2019-03-30T01:02:57.303Z,87.03
2019-03-30T01:03:57.341Z,87.13
2019-03-30T01:04:57.278Z,87.24
2019-03-30T01:05:58.348Z,87.34
2019-03-30T01:06:57.259Z,86.82
2019-03-30T01:07:57.278Z,87.03
2019-03-30T01:08:57.222Z,87.24
2019-03-30T01:09:57.212Z,87.54
2019-03-30T01:10:57.200Z,87.44
2019-03-30T01:11:57.192Z,87.59
2019-03-30T01:12:57.204Z,87.54
2019-03-30T01:13:57.201Z,87.65
2019-03-30T01:14:57.167Z,88.17
2019-03-30T01:15:57.144Z,88.57
2019-03-30T01:16:57.137Z,88.47
2019-03-30T01:17:57.170Z,88.47
2019-03-30T01:18:57.130Z,88.57
2019-03-30T01:20:03.076Z,88.20
2019-03-30T01:20:58.091Z,87.85
2019-03-30T01:21:57.078Z,87.75
2019-03-30T01:22:57.061Z,87.65
2019-03-30T01:23:57.068Z,87.75
2019-03-30T01:24:57.094Z,88.06
2019-03-30T01:25:57.033Z,87.90
2019-03-30T01:26:57.050Z,87.96
2019-03-30T01:27:57.008Z,88.26
2019-03-30T01:28:56.999Z,88.26
2019-03-30T01:29:57.114Z,88.06
2019-03-30T01:30:57.019Z,88.31
2019-03-30T01:31:56.967Z,88.31
2019-03-30T01:32:56.967Z,87.99
2019-03-30T01:33:56.954Z,87.79
2019-03-30T01:34:56.940Z,88.31
2019-03-30T01:35:56.942Z,88.10
2019-03-30T01:36:56.949Z,88.31
2019-03-30T01:37:56.904Z,88.31
2019-03-30T01:38:56.907Z,88.41
2019-03-30T01:39:56.904Z,88.47
2019-03-30T01:40:56.927Z,88.51
2019-03-30T01:41:56.923Z,88.92
2019-03-30T01:42:56.889Z,89.13
2019-03-30T01:43:56.831Z,89.03
2019-03-30T01:44:56.831Z,89.34
2019-03-30T01:45:56.813Z,89.34
2019-03-30T01:46:56.822Z,89.54
2019-03-30T01:47:56.814Z,89.65
2019-03-30T01:48:56.799Z,89.23
2019-03-30T01:49:56.763Z,89.34
2019-03-30T01:50:56.778Z,89.13
2019-03-30T01:51:56.742Z,89.23
2019-03-30T01:52:56.736Z,89.03
2019-03-30T01:53:56.747Z,89.54
2019-03-30T01:54:56.710Z,89.03
2019-03-30T01:55:56.695Z,89.28
2019-03-30T01:56:56.688Z,89.44
2019-03-30T01:57:56.671Z,89.34
2019-03-30T01:58:56.662Z,89.34
2019-03-30T01:59:56.727Z,88.92
2019-03-30T02:00:56.649Z,89.23
2019-03-30T02:01:56.637Z,89.23
2019-03-30T02:02:56.624Z,89.44
2019-03-30T02:03:56.613Z,89.44
2019-03-30T02:04:56.603Z,89.44
2019-03-30T02:05:56.627Z,89.28
2019-03-30T02:06:56.575Z,89.48
2019-03-30T02:07:56.563Z,89.28
2019-03-30T02:08:56.570Z,88.86
2019-03-30T02:09:56.559Z,88.96
2019-03-30T02:10:56.554Z,88.86
2019-03-30T02:11:56.558Z,88.86
2019-03-30T02:12:56.528Z,88.65
2019-03-30T02:13:56.504Z,89.28
2019-03-30T02:14:56.496Z,88.86
2019-03-30T02:15:56.487Z,89.28
2019-03-30T02:16:56.479Z,89.48
2019-03-30T02:17:56.494Z,89.38
2019-03-30T02:18:56.467Z,89.28
2019-03-30T02:19:56.432Z,89.73
2019-03-30T02:20:56.426Z,89.38
2019-03-30T02:21:56.413Z,89.58
2019-03-30T02:22:56.405Z,89.38
2019-03-30T02:23:56.446Z,89.38
2019-03-30T02:24:56.385Z,89.38
2019-03-30T02:25:56.485Z,89.48
2019-03-30T02:26:56.355Z,89.42
2019-03-30T02:27:56.419Z,89.32
2019-03-30T02:28:56.338Z,89.38
2019-03-30T02:29:56.342Z,89.42
2019-03-30T02:30:56.319Z,89.79
2019-03-30T02:31:56.345Z,89.83
2019-03-30T02:32:56.336Z,89.73
2019-03-30T02:33:56.275Z,89.42
2019-03-30T02:34:56.288Z,89.42
2019-03-30T02:35:56.290Z,89.62
2019-03-30T02:36:56.243Z,89.42
2019-03-30T02:37:56.234Z,89.83
2019-03-30T02:38:56.227Z,90.04
2019-03-30T02:39:56.224Z,90.04
2019-03-30T02:40:56.201Z,89.83
2019-03-30T02:41:56.238Z,89.94
2019-03-30T02:42:56.200Z,89.94
2019-03-30T02:43:56.171Z,90.14
2019-03-30T02:44:56.162Z,89.94
2019-03-30T02:45:56.157Z,90.25
2019-03-30T02:46:56.147Z,90.35
2019-03-30T02:47:56.167Z,90.35
2019-03-30T02:48:56.139Z,89.83
2019-03-30T02:49:56.108Z,90.04
2019-03-30T02:50:56.095Z,90.66
2019-03-30T02:51:56.088Z,90.25
2019-03-30T02:52:56.107Z,90.35
2019-03-30T02:53:56.069Z,89.94
2019-03-30T02:54:56.051Z,90.97
2019-03-30T02:55:56.069Z,90.14
2019-03-30T02:56:56.038Z,90.14
2019-03-30T02:57:56.031Z,90.25
2019-03-30T02:58:56.054Z,90.28
2019-03-30T02:59:56.021Z,90.59
2019-03-30T03:00:55.988Z,90.14
2019-03-30T03:01:55.990Z,90.59
2019-03-30T03:02:55.985Z,90.49
2019-03-30T03:03:55.961Z,90.80
2019-03-30T03:04:56.003Z,90.76
2019-03-30T03:05:55.943Z,91.11
2019-03-30T03:06:55.952Z,91.01
2019-03-30T03:07:55.967Z,90.91
2019-03-30T03:08:55.942Z,91.63
2019-03-30T03:09:55.888Z,92.04
2019-03-30T03:10:55.903Z,91.42
2019-03-30T03:11:55.899Z,91.94
2019-03-30T03:12:55.853Z,92.35
2019-03-30T03:13:55.860Z,91.83
2019-03-30T03:14:55.887Z,91.83
2019-03-30T03:15:55.849Z,91.83
2019-03-30T03:16:55.847Z,91.63
2019-03-30T03:17:55.815Z,91.63
2019-03-30T03:18:55.813Z,91.52
2019-03-30T03:19:55.791Z,91.73
2019-03-30T03:21:07.451Z,91.52
2019-03-30T03:21:56.767Z,92.55
2019-03-30T03:22:55.754Z,91.83
2019-03-30T03:23:55.748Z,91.94
2019-03-30T03:24:55.731Z,91.83
2019-03-30T03:25:55.723Z,91.94
2019-03-30T03:26:55.784Z,91.63
2019-03-30T03:27:55.736Z,92.55
2019-03-30T03:28:55.721Z,92.14
2019-03-30T03:29:55.674Z,91.94
2019-03-30T03:30:55.702Z,92.25
2019-03-30T03:31:55.717Z,92.04
2019-03-30T03:32:55.670Z,92.25
2019-03-30T03:33:55.650Z,92.25
2019-03-30T03:34:55.668Z,91.83
2019-03-30T03:35:55.615Z,91.42
2019-03-30T03:36:55.619Z,91.73
2019-03-30T03:37:55.656Z,91.94
2019-03-30T03:38:55.638Z,91.73
2019-03-30T03:39:55.601Z,91.73
2019-03-30T03:40:55.585Z,91.77
2019-03-30T03:41:55.559Z,92.35
2019-03-30T03:42:55.556Z,91.73
2019-03-30T03:43:55.572Z,91.94
2019-03-30T03:44:55.537Z,92.76
2019-03-30T03:45:55.561Z,92.66
2019-03-30T03:46:55.514Z,92.76
2019-03-30T03:47:55.496Z,92.97
2019-03-30T03:48:55.477Z,93.18
2019-03-30T03:49:55.506Z,92.86
2019-03-30T03:50:55.498Z,93.18
2019-03-30T03:51:55.457Z,93.12
2019-03-30T03:52:55.432Z,92.91
2019-03-30T03:53:55.416Z,92.80
2019-03-30T03:54:55.429Z,92.80
2019-03-30T03:55:55.409Z,92.80
2019-03-30T03:56:55.404Z,92.19
2019-03-30T03:57:55.396Z,91.98
2019-03-30T03:58:55.364Z,91.98
2019-03-30T03:59:55.357Z,92.19
2019-03-30T04:00:55.388Z,93.12
2019-03-30T04:01:55.350Z,93.63
2019-03-30T04:02:55.393Z,93.53
2019-03-30T04:03:55.332Z,94.25
2019-03-30T04:04:55.325Z,93.53
2019-03-30T04:05:55.321Z,94.15
2019-03-30T04:06:55.601Z,93.84
2019-03-30T04:07:55.337Z,94.04
2019-03-30T04:08:55.260Z,94.15
2019-03-30T04:09:55.239Z,93.94
2019-03-30T04:10:55.232Z,93.94
2019-03-30T04:11:55.224Z,94.04
2019-03-30T04:12:55.238Z,94.04
2019-03-30T04:13:55.239Z,93.84
2019-03-30T04:14:55.197Z,93.84
2019-03-30T04:15:55.238Z,93.94
2019-03-30T04:16:55.168Z,93.94
2019-03-30T04:17:55.180Z,93.84
2019-03-30T04:18:55.172Z,94.04
2019-03-30T04:19:55.149Z,94.35
2019-03-30T04:20:55.147Z,94.04
2019-03-30T04:21:55.123Z,93.94
2019-03-30T04:22:55.108Z,94.15
2019-03-30T04:23:55.146Z,94.10
2019-03-30T04:24:55.103Z,94.04
2019-03-30T04:25:55.082Z,93.94
2019-03-30T04:26:55.115Z,94.04
2019-03-30T04:27:55.052Z,94.15
2019-03-30T04:28:55.085Z,94.04
2019-03-30T04:29:55.095Z,94.25
2019-03-30T04:30:55.020Z,94.15
2019-03-30T04:31:55.037Z,94.04
2019-03-30T04:32:55.051Z,93.84
2019-03-30T04:33:55.051Z,94.15
2019-03-30T04:34:54.997Z,94.04
2019-03-30T04:35:57.785Z,94.25
2019-03-30T04:36:54.952Z,94.04
2019-03-30T04:37:54.983Z,94.04
2019-03-30T04:38:55.004Z,94.04
2019-03-30T04:39:54.917Z,94.19
2019-03-30T04:40:54.920Z,94.04
2019-03-30T04:41:54.928Z,94.19
2019-03-30T04:42:54.889Z,93.94
2019-03-30T04:43:54.890Z,93.84
2019-03-30T04:44:54.913Z,94.25
2019-03-30T04:45:54.861Z,94.35
2019-03-30T04:46:54.846Z,94.04
2019-03-30T04:47:54.855Z,94.15
2019-03-30T04:48:54.854Z,94.09
2019-03-30T04:49:54.818Z,94.25
2019-03-30T04:50:54.805Z,94.04
2019-03-30T04:51:57.756Z,94.04
2019-03-30T04:52:54.796Z,94.09
2019-03-30T04:53:54.786Z,93.98
2019-03-30T04:54:54.811Z,94.19
2019-03-30T04:55:54.754Z,94.29
2019-03-30T04:56:54.737Z,93.98
2019-03-30T04:57:57.728Z,94.19
2019-03-30T04:58:54.730Z,93.88
2019-03-30T04:59:54.707Z,93.98
2019-03-30T05:00:54.692Z,93.98
2019-03-30T05:01:54.680Z,93.98
2019-03-30T05:02:54.708Z,94.19
2019-03-30T05:03:54.702Z,94.09
2019-03-30T05:04:54.669Z,94.09
2019-03-30T05:05:54.643Z,94.19
2019-03-30T05:06:54.634Z,94.09
2019-03-30T05:07:54.622Z,93.68
2019-03-30T05:08:54.632Z,94.09
2019-03-30T05:09:54.600Z,94.13
2019-03-30T05:10:54.587Z,94.09
2019-03-30T05:11:54.596Z,94.19
2019-03-30T05:12:54.576Z,94.50
2019-03-30T05:13:54.575Z,94.19
2019-03-30T05:14:54.580Z,94.19
2019-03-30T05:15:54.566Z,94.23
2019-03-30T05:16:54.604Z,94.29
2019-03-30T05:17:54.511Z,94.29
2019-03-30T05:18:54.506Z,94.09
2019-03-30T05:19:54.499Z,93.88
2019-03-30T05:20:54.508Z,94.40
2019-03-30T05:21:54.477Z,94.19
2019-03-30T05:22:54.459Z,93.68
2019-03-30T05:23:54.485Z,94.46
2019-03-30T05:24:54.440Z,94.60
2019-03-30T05:25:54.426Z,94.67
2019-03-30T05:26:54.468Z,94.92
2019-03-30T05:27:54.414Z,94.81
2019-03-30T05:28:54.465Z,94.46
2019-03-30T05:29:54.467Z,94.25
2019-03-30T05:30:54.372Z,94.25
2019-03-30T05:31:54.383Z,94.67
2019-03-30T05:33:05.110Z,94.35
2019-03-30T05:33:55.351Z,94.15
2019-03-30T05:34:54.337Z,94.25
2019-03-30T05:35:54.357Z,93.84
2019-03-30T05:36:54.311Z,93.94
2019-03-30T05:37:54.321Z,93.84
2019-03-30T05:38:54.347Z,94.35
2019-03-30T05:39:54.294Z,94.35
2019-03-30T05:40:54.397Z,94.15
2019-03-30T05:41:54.276Z,93.73
2019-03-30T05:42:54.267Z,94.15
2019-03-30T05:43:54.252Z,94.15
2019-03-30T05:44:57.547Z,94.15
2019-03-30T05:45:54.227Z,94.15
2019-03-30T05:46:54.255Z,93.84
2019-03-30T05:47:54.233Z,93.94
2019-03-30T05:48:54.187Z,94.15
2019-03-30T05:49:54.203Z,94.15
2019-03-30T05:50:54.165Z,93.94
2019-03-30T05:51:54.217Z,93.94
2019-03-30T05:52:54.292Z,94.15
2019-03-30T05:53:54.123Z,93.94
2019-03-30T05:54:54.149Z,93.94
2019-03-30T05:55:54.145Z,94.04
2019-03-30T05:56:54.118Z,93.84
2019-03-30T05:57:54.083Z,94.04
2019-03-30T05:58:54.072Z,94.25
2019-03-30T05:59:55.838Z,94.04
2019-03-30T06:00:54.101Z,93.73
2019-03-30T06:01:54.049Z,93.63
2019-03-30T06:02:54.044Z,93.63
2019-03-30T06:03:54.066Z,93.49
2019-03-30T06:04:54.081Z,93.63
2019-03-30T06:05:54.025Z,93.53
2019-03-30T06:06:53.990Z,93.73
2019-03-30T06:07:53.985Z,93.53
2019-03-30T06:08:53.977Z,93.63
2019-03-30T06:09:53.987Z,93.94
2019-03-30T06:10:53.953Z,93.94
2019-03-30T06:11:53.966Z,93.22
2019-03-30T06:12:53.927Z,92.80
2019-03-30T06:13:53.918Z,92.80
2019-03-30T06:14:53.913Z,93.12
2019-03-30T06:15:53.917Z,92.80
2019-03-30T06:16:53.894Z,92.66
2019-03-30T06:17:53.904Z,92.91
2019-03-30T06:18:53.855Z,93.07
2019-03-30T06:19:53.859Z,92.97
2019-03-30T06:20:53.866Z,92.76
2019-03-30T06:21:53.870Z,93.07
2019-03-30T06:22:53.882Z,92.66
2019-03-30T06:23:53.831Z,92.76
2019-03-30T06:24:53.809Z,92.76
2019-03-30T06:25:53.799Z,92.76
2019-03-30T06:26:53.767Z,92.55
2019-03-30T06:27:53.802Z,93.07
2019-03-30T06:28:53.749Z,92.76
2019-03-30T06:29:53.777Z,92.66
2019-03-30T06:30:53.784Z,92.76
2019-03-30T06:31:53.741Z,92.86
2019-03-30T06:32:53.731Z,92.66
2019-03-30T06:33:53.785Z,92.76
2019-03-30T06:34:53.689Z,92.72
2019-03-30T06:35:53.690Z,92.61
2019-03-30T06:36:53.677Z,92.72
2019-03-30T06:37:53.683Z,92.61
2019-03-30T06:38:53.673Z,92.61
2019-03-30T06:39:53.659Z,92.61
2019-03-30T06:40:53.627Z,92.10
2019-03-30T06:41:53.612Z,92.10
2019-03-30T06:42:53.618Z,91.89
2019-03-30T06:43:53.625Z,91.79
2019-03-30T06:44:53.587Z,92.21
2019-03-30T06:45:53.599Z,92.31
2019-03-30T06:46:53.592Z,92.00
2019-03-30T06:47:53.561Z,92.00
2019-03-30T06:48:53.558Z,91.96
2019-03-30T06:49:53.546Z,92.41
2019-03-30T06:50:53.508Z,91.75
2019-03-30T06:51:53.612Z,91.48
2019-03-30T06:52:57.827Z,91.38
2019-03-30T06:53:54.540Z,92.27
2019-03-30T06:54:53.481Z,91.58
2019-03-30T06:55:53.469Z,91.69
2019-03-30T06:56:53.453Z,91.58
2019-03-30T06:57:53.478Z,91.64
2019-03-30T06:58:53.421Z,91.44
2019-03-30T06:59:53.419Z,90.86
2019-03-30T07:00:53.625Z,90.97
2019-03-30T07:01:53.646Z,90.92
2019-03-30T07:02:53.406Z,91.64
2019-03-30T07:03:53.373Z,91.44
2019-03-30T07:04:53.364Z,91.44
2019-03-30T07:05:53.351Z,91.13
2019-03-30T07:06:53.369Z,90.82
2019-03-30T07:07:53.355Z,91.13
2019-03-30T07:08:53.342Z,90.92
2019-03-30T07:09:53.321Z,90.82
2019-03-30T07:10:53.311Z,90.72
2019-03-30T07:11:53.317Z,90.92
2019-03-30T07:12:53.290Z,90.92
2019-03-30T07:13:53.288Z,90.67
2019-03-30T07:14:53.273Z,90.67
2019-03-30T07:15:53.244Z,90.67
2019-03-30T07:16:53.344Z,90.26
2019-03-30T07:17:53.242Z,89.85
2019-03-30T07:18:53.240Z,90.06
2019-03-30T07:19:53.235Z,90.37
2019-03-30T07:20:53.199Z,90.26
2019-03-30T07:21:53.193Z,90.37
2019-03-30T07:22:53.256Z,90.37
2019-03-30T07:23:53.229Z,90.06
2019-03-30T07:24:53.147Z,90.06
2019-03-30T07:25:53.174Z,89.85
2019-03-30T07:26:53.187Z,90.26
2019-03-30T07:27:53.123Z,90.26
2019-03-30T07:28:53.114Z,90.16
2019-03-30T07:29:53.103Z,90.06
2019-03-30T07:30:53.105Z,90.16
2019-03-30T07:31:53.096Z,90.16
2019-03-30T07:32:53.064Z,90.26
2019-03-30T07:33:53.053Z,90.37
2019-03-30T07:34:53.127Z,90.16
2019-03-30T07:35:53.029Z,90.26
2019-03-30T07:36:53.022Z,90.16
2019-03-30T07:37:53.045Z,90.16
2019-03-30T07:38:52.988Z,90.67
2019-03-30T07:39:52.976Z,90.57
2019-03-30T07:40:52.984Z,90.88
2019-03-30T07:41:53.004Z,90.94
2019-03-30T07:42:52.970Z,90.73
2019-03-30T07:43:52.960Z,90.22
2019-03-30T07:44:52.937Z,90.33
2019-03-30T07:45:52.918Z,90.73
2019-03-30T07:46:52.907Z,90.01
2019-03-30T07:47:52.942Z,89.61
2019-03-30T07:48:52.885Z,89.46
2019-03-30T07:49:52.873Z,89.29
2019-03-30T07:50:52.854Z,89.36
2019-03-30T07:51:52.885Z,89.56
2019-03-30T07:52:52.845Z,89.36
2019-03-30T07:53:52.850Z,89.36
2019-03-30T07:54:52.954Z,89.36
2019-03-30T07:55:52.802Z,89.46
2019-03-30T07:57:04.241Z,89.36
2019-03-30T07:57:53.847Z,89.22
2019-03-30T07:58:52.806Z,89.52
2019-03-30T07:59:52.814Z,89.67
2019-03-30T08:00:52.772Z,89.31
2019-03-30T08:01:52.740Z,88.90
2019-03-30T08:02:55.533Z,88.70
2019-03-30T08:03:52.718Z,88.90
2019-03-30T08:04:52.734Z,89.11
2019-03-30T08:05:54.342Z,88.90
2019-03-30T08:06:52.686Z,88.80
2019-03-30T08:07:52.766Z,89.11
2019-03-30T08:08:52.657Z,89.31
2019-03-30T08:09:52.704Z,89.01
2019-03-30T08:10:52.666Z,88.90
2019-03-30T08:11:52.639Z,89.22
2019-03-30T08:12:52.703Z,89.01
2019-03-30T08:13:52.608Z,88.76
2019-03-30T08:14:52.604Z,88.96
2019-03-30T08:15:52.600Z,88.96
2019-03-30T08:16:52.601Z,88.82
2019-03-30T08:17:52.636Z,88.62
2019-03-30T08:18:52.551Z,88.51
2019-03-30T08:19:52.535Z,88.56
2019-03-30T08:20:52.758Z,88.62
2019-03-30T08:21:52.586Z,88.66
2019-03-30T08:22:52.552Z,88.51
2019-03-30T08:23:52.490Z,88.51
2019-03-30T08:24:52.480Z,88.51
2019-03-30T08:25:52.468Z,88.82
2019-03-30T08:26:52.593Z,88.37
2019-03-30T08:27:52.463Z,87.90
2019-03-30T08:28:52.476Z,88.06
2019-03-30T08:29:52.434Z,87.45
2019-03-30T08:30:52.450Z,87.65
2019-03-30T08:31:52.409Z,87.24
2019-03-30T08:32:52.433Z,87.30
2019-03-30T08:33:52.395Z,87.55
2019-03-30T08:34:52.379Z,87.10
2019-03-30T08:35:52.372Z,86.79
2019-03-30T08:36:52.419Z,87.30
2019-03-30T08:37:52.432Z,86.79
2019-03-30T08:38:52.412Z,86.44
2019-03-30T08:39:52.363Z,86.75
2019-03-30T08:40:52.550Z,86.65
2019-03-30T08:41:53.094Z,86.13
2019-03-30T08:42:52.346Z,86.13
2019-03-30T08:43:52.280Z,85.82
2019-03-30T08:44:52.289Z,85.78
2019-03-30T08:45:52.260Z,86.30
2019-03-30T08:46:52.262Z,85.38
2019-03-30T08:47:52.239Z,85.68
2019-03-30T08:48:52.221Z,85.17
2019-03-30T08:49:52.234Z,85.17
2019-03-30T08:50:52.210Z,85.03
2019-03-30T08:51:52.447Z,85.13
2019-03-30T08:52:52.229Z,84.82
2019-03-30T08:53:54.822Z,85.39
2019-03-30T08:54:52.152Z,84.41
2019-03-30T08:55:52.164Z,84.06
2019-03-30T08:56:52.131Z,84.17
2019-03-30T08:57:52.341Z,83.25
2019-03-30T08:58:52.113Z,82.90
2019-03-30T08:59:52.165Z,82.59
2019-03-30T09:00:52.216Z,82.79
2019-03-30T09:01:52.104Z,81.63
2019-03-30T09:02:52.066Z,81.73
2019-03-30T09:03:52.166Z,81.18
2019-03-30T09:04:52.085Z,80.88
2019-03-30T09:05:52.048Z,80.98
2019-03-30T09:06:52.019Z,80.05
2019-03-30T09:07:52.032Z,79.91
2019-03-30T09:08:52.015Z,79.82
2019-03-30T09:09:52.087Z,79.50
2019-03-30T09:10:51.993Z,79.30
2019-03-30T09:11:51.972Z,79.50
2019-03-30T09:12:51.958Z,79.20
2019-03-30T09:13:51.993Z,79.37
2019-03-30T09:14:51.940Z,78.86
2019-03-30T09:15:52.023Z,77.32
2019-03-30T09:16:51.914Z,77.08
2019-03-30T09:17:51.920Z,76.78
2019-03-30T09:18:51.926Z,76.06
2019-03-30T09:19:51.884Z,76.12
2019-03-30T09:20:51.883Z,75.82
2019-03-30T09:21:51.867Z,76.03
2019-03-30T09:22:51.872Z,74.66
2019-03-30T09:23:51.848Z,74.46
2019-03-30T09:24:51.862Z,74.66
2019-03-30T09:25:51.820Z,74.73
2019-03-30T09:26:51.821Z,73.91
2019-03-30T09:27:51.976Z,73.50
2019-03-30T09:28:51.813Z,72.04
2019-03-30T09:29:51.770Z,71.73
2019-03-30T09:30:51.787Z,71.29
2019-03-30T09:31:51.771Z,71.60
2019-03-30T09:32:51.740Z,71.50
2019-03-30T09:33:51.766Z,72.31
2019-03-30T09:34:51.714Z,71.70
2019-03-30T09:35:51.741Z,72.41
2019-03-30T09:36:51.785Z,71.70
2019-03-30T09:37:51.689Z,72.31
2019-03-30T09:38:51.715Z,72.31
2019-03-30T09:39:51.676Z,72.00
2019-03-30T09:40:51.650Z,71.67
2019-03-30T09:41:51.684Z,70.44
2019-03-30T09:42:51.643Z,71.12
2019-03-30T09:43:51.635Z,70.61
2019-03-30T09:44:51.612Z,68.75
2019-03-30T09:45:51.616Z,70.07
2019-03-30T09:46:51.588Z,69.53
2019-03-30T09:47:51.600Z,69.12
2019-03-30T09:48:51.583Z,69.23
2019-03-30T09:49:51.593Z,70.04
2019-03-30T09:50:51.546Z,68.71
2019-03-30T09:51:51.543Z,68.38
2019-03-30T09:52:51.559Z,68.58
2019-03-30T09:53:51.541Z,68.79
2019-03-30T09:54:51.516Z,67.77
2019-03-30T09:55:51.507Z,68.24
2019-03-30T09:56:51.525Z,67.53
2019-03-30T09:57:51.473Z,67.53
2019-03-30T09:58:51.477Z,66.31
2019-03-30T09:59:51.519Z,66.58
2019-03-30T10:00:51.449Z,67.40
2019-03-30T10:01:51.438Z,67.40
2019-03-30T10:02:51.418Z,66.79
2019-03-30T10:03:51.405Z,66.58
2019-03-30T10:04:51.413Z,65.80
2019-03-30T10:05:51.404Z,66.28
2019-03-30T10:06:51.392Z,65.67
2019-03-30T10:07:51.364Z,65.97
2019-03-30T10:08:51.354Z,65.16
2019-03-30T10:09:51.341Z,64.83
2019-03-30T10:10:51.327Z,66.96
2019-03-30T10:11:51.357Z,65.54
2019-03-30T10:12:51.335Z,65.44
2019-03-30T10:13:51.310Z,65.03
2019-03-30T10:14:51.281Z,64.93
2019-03-30T10:15:51.297Z,65.33
2019-03-30T10:16:51.333Z,64.62
2019-03-30T10:17:51.274Z,65.13
2019-03-30T10:18:51.241Z,64.52
2019-03-30T10:20:03.633Z,64.22
2019-03-30T10:20:52.226Z,64.52
2019-03-30T10:21:51.212Z,64.90
2019-03-30T10:22:51.221Z,65.23
2019-03-30T10:23:51.230Z,64.79
2019-03-30T10:24:51.199Z,64.32
2019-03-30T10:25:51.224Z,65.03
2019-03-30T10:26:51.163Z,64.59
2019-03-30T10:27:51.146Z,65.10
2019-03-30T10:28:51.153Z,64.73
2019-03-30T10:29:51.150Z,64.59
2019-03-30T10:30:51.109Z,64.29
2019-03-30T10:31:51.096Z,63.98
2019-03-30T10:32:51.090Z,64.09
2019-03-30T10:33:51.085Z,64.39
2019-03-30T10:34:51.063Z,65.00
2019-03-30T10:35:51.089Z,64.59
2019-03-30T10:36:51.058Z,64.59
2019-03-30T10:37:51.036Z,63.55
2019-03-30T10:38:51.059Z,63.75
2019-03-30T10:39:51.016Z,63.65
2019-03-30T10:40:51.030Z,63.95
2019-03-30T10:41:51.010Z,62.91
2019-03-30T10:42:50.982Z,64.46
2019-03-30T10:43:50.975Z,64.26
2019-03-30T10:44:50.960Z,64.15
2019-03-30T10:45:50.970Z,63.34
2019-03-30T10:46:50.944Z,64.06
2019-03-30T10:47:50.945Z,63.75
2019-03-30T10:48:50.914Z,63.65
2019-03-30T10:49:50.912Z,63.04
2019-03-30T10:50:50.896Z,63.85
2019-03-30T10:51:54.194Z,63.01
2019-03-30T10:52:50.915Z,62.51
2019-03-30T10:53:50.866Z,62.78
2019-03-30T10:54:52.919Z,62.48
2019-03-30T10:55:50.857Z,62.91
2019-03-30T10:56:50.851Z,64.33
2019-03-30T10:57:50.837Z,64.43
2019-03-30T10:58:50.840Z,62.91
2019-03-30T10:59:50.802Z,63.69
2019-03-30T11:00:50.799Z,62.88
2019-03-30T11:01:51.566Z,61.97
2019-03-30T11:02:50.765Z,61.53
2019-03-30T11:03:51.093Z,62.27
2019-03-30T11:04:50.743Z,61.94
2019-03-30T11:05:50.725Z,62.17
2019-03-30T11:06:50.726Z,63.46
2019-03-30T11:07:50.713Z,61.94
2019-03-30T11:08:50.700Z,62.54
2019-03-30T11:09:50.750Z,60.42
2019-03-30T11:10:50.673Z,60.08
2019-03-30T11:11:50.672Z,60.31
2019-03-30T11:12:50.668Z,62.75
2019-03-30T11:13:50.658Z,60.52
2019-03-30T11:14:50.635Z,63.86
2019-03-30T11:15:50.684Z,61.94
2019-03-30T11:16:50.637Z,62.24
2019-03-30T11:17:50.614Z,61.63
2019-03-30T11:18:50.584Z,61.23
2019-03-30T11:19:50.598Z,60.39
2019-03-30T11:20:50.574Z,62.31
2019-03-30T11:21:50.610Z,61.51
2019-03-30T11:22:50.558Z,61.40
2019-03-30T11:23:50.580Z,60.86
2019-03-30T11:24:50.526Z,63.20
2019-03-30T11:25:50.708Z,62.49
2019-03-30T11:26:50.506Z,59.85
2019-03-30T11:27:50.508Z,58.81
2019-03-30T11:28:50.497Z,58.41
2019-03-30T11:29:50.501Z,58.00
2019-03-30T11:30:50.476Z,58.99
2019-03-30T11:31:50.499Z,59.39
2019-03-30T11:32:50.446Z,58.07
2019-03-30T11:33:50.434Z,60.20
2019-03-30T11:34:50.412Z,59.39
2019-03-30T11:35:50.431Z,59.39
2019-03-30T11:36:50.470Z,58.28
2019-03-30T11:37:50.461Z,57.98
2019-03-30T11:38:50.372Z,58.05
2019-03-30T11:39:50.452Z,57.54
2019-03-30T11:40:50.390Z,57.44
2019-03-30T11:41:50.334Z,57.34
2019-03-30T11:42:50.331Z,58.36
2019-03-30T11:43:50.382Z,56.23
2019-03-30T11:44:50.313Z,56.10
2019-03-30T11:45:50.294Z,55.90
2019-03-30T11:46:50.316Z,55.49
2019-03-30T11:47:50.274Z,55.40
2019-03-30T11:48:50.272Z,55.87
2019-03-30T11:49:50.344Z,54.16
2019-03-30T11:50:50.249Z,53.85
2019-03-30T11:51:50.231Z,54.53
2019-03-30T11:52:50.209Z,54.33
2019-03-30T11:53:50.212Z,53.85
2019-03-30T11:54:50.222Z,54.36
2019-03-30T11:55:50.242Z,54.58
2019-03-30T11:56:50.183Z,54.86
2019-03-30T11:57:50.192Z,54.08
2019-03-30T11:58:50.150Z,55.60
2019-03-30T11:59:50.142Z,54.99
2019-03-30T12:00:50.147Z,55.40
2019-03-30T12:01:50.114Z,55.19
2019-03-30T12:02:50.120Z,54.08
2019-03-30T12:03:50.118Z,53.67
2019-03-30T12:04:50.087Z,53.47
2019-03-30T12:05:50.147Z,53.17
2019-03-30T12:06:51.826Z,52.23
2019-03-30T12:07:50.054Z,52.64
2019-03-30T12:08:50.046Z,52.21
2019-03-30T12:09:50.034Z,53.93
2019-03-30T12:10:50.019Z,52.01
2019-03-30T12:11:50.035Z,51.89
2019-03-30T12:12:50.020Z,49.87
2019-03-30T12:13:49.986Z,49.87
2019-03-30T12:14:50.075Z,51.58
2019-03-30T12:15:49.974Z,49.94
2019-03-30T12:16:49.978Z,49.66
2019-03-30T12:17:50.012Z,51.25
2019-03-30T12:18:49.933Z,49.87
2019-03-30T12:19:49.925Z,51.78
2019-03-30T12:20:50.032Z,49.84
2019-03-30T12:21:49.908Z,49.74
2019-03-30T12:22:49.943Z,49.84
2019-03-30T12:23:49.986Z,50.78
2019-03-30T12:24:49.880Z,49.36
2019-03-30T12:25:49.890Z,49.56
2019-03-30T12:26:49.876Z,49.46
2019-03-30T12:27:49.871Z,49.16
2019-03-30T12:28:49.830Z,50.04
2019-03-30T12:29:49.838Z,51.15
2019-03-30T12:30:49.828Z,49.96
2019-03-30T12:31:49.853Z,50.67
2019-03-30T12:32:49.804Z,50.65
2019-03-30T12:33:49.813Z,50.65
2019-03-30T12:34:49.819Z,50.87
2019-03-30T12:35:49.750Z,50.98
2019-03-30T12:36:49.764Z,49.87
2019-03-30T12:37:49.767Z,49.13
2019-03-30T12:38:49.717Z,49.74
2019-03-30T12:39:49.747Z,49.04
2019-03-30T12:40:49.769Z,49.52
2019-03-30T12:41:49.686Z,48.41
2019-03-30T12:42:49.772Z,47.80
2019-03-30T12:43:49.687Z,47.70
2019-03-30T12:44:49.662Z,48.41
2019-03-30T12:45:49.644Z,49.49
2019-03-30T12:46:49.702Z,48.38
2019-03-30T12:47:49.660Z,48.91
2019-03-30T12:48:49.643Z,49.11
2019-03-30T12:49:49.613Z,47.19
2019-03-30T12:50:49.683Z,47.27
2019-03-30T12:51:49.588Z,48.00
2019-03-30T12:52:49.642Z,47.80